createdAt,value
2023-06-19T00:00:20.798Z,65.8
2023-06-19T00:05:18.363Z,65.6
2023-06-19T00:10:15.405Z,65.3
2023-06-19T00:15:15.395Z,65.2
2023-06-19T00:20:18.375Z,65.0
2023-06-19T00:25:18.356Z,64.8
2023-06-19T00:30:18.360Z,64.6
2023-06-19T00:35:15.418Z,64.5
2023-06-19T00:40:18.411Z,64.4
2023-06-19T00:45:15.448Z,64.3
2023-06-19T00:50:18.401Z,64.1
2023-06-19T00:55:15.407Z,64.0
2023-06-19T01:00:15.387Z,63.9
2023-06-19T01:05:18.420Z,63.8
2023-06-19T01:10:18.381Z,63.7
2023-06-19T01:15:18.361Z,63.5
2023-06-19T01:20:18.378Z,63.4
2023-06-19T01:25:15.521Z,63.1
2023-06-19T01:30:15.456Z,63.0
2023-06-19T01:35:18.492Z,62.8
2023-06-19T01:40:18.392Z,62.7
2023-06-19T01:45:18.371Z,62.6
2023-06-19T01:50:18.399Z,62.6
2023-06-19T01:55:15.388Z,62.6
2023-06-19T02:00:15.455Z,62.6
2023-06-19T02:05:18.459Z,62.5
2023-06-19T02:10:18.425Z,62.5
2023-06-19T02:15:18.434Z,62.5
2023-06-19T02:20:18.425Z,62.5
2023-06-19T02:25:15.515Z,62.5
2023-06-19T02:30:18.451Z,62.5
2023-06-19T02:35:15.455Z,62.5
2023-06-19T02:40:15.502Z,62.5
2023-06-19T02:45:18.426Z,62.5
2023-06-19T02:50:18.532Z,62.5
2023-06-19T02:55:18.470Z,62.6
2023-06-19T03:00:18.431Z,62.6
2023-06-19T03:05:18.400Z,62.6
2023-06-19T03:10:15.487Z,62.6
2023-06-19T03:15:15.433Z,62.6
2023-06-19T03:20:15.580Z,62.6
2023-06-19T03:25:18.505Z,62.6
2023-06-19T03:30:18.374Z,62.5
2023-06-19T03:35:18.429Z,62.5
2023-06-19T03:40:18.532Z,62.5
2023-06-19T03:45:15.502Z,62.5
2023-06-19T03:50:21.490Z,62.5
2023-06-19T03:55:15.478Z,62.5
2023-06-19T04:00:19.793Z,62.5
2023-06-19T04:05:16.752Z,62.5
2023-06-19T04:10:19.790Z,62.4
2023-06-19T04:15:16.753Z,62.3
2023-06-19T04:20:16.543Z,62.2
2023-06-19T04:25:19.739Z,62.2
2023-06-19T04:30:19.659Z,62.1
2023-06-19T04:35:19.804Z,62.0
2023-06-19T04:40:19.746Z,61.9
2023-06-19T04:45:16.763Z,61.8
2023-06-19T04:50:16.827Z,61.8
2023-06-19T04:55:16.718Z,61.7
2023-06-19T05:00:16.812Z,61.6
2023-06-19T05:05:23.242Z,61.6
2023-06-19T05:10:19.791Z,61.5
2023-06-19T05:15:19.795Z,61.6
2023-06-19T05:20:19.816Z,61.6
2023-06-19T05:25:16.744Z,61.6
2023-06-19T05:30:16.737Z,61.6
2023-06-19T05:35:17.017Z,61.6
2023-06-19T05:40:19.738Z,61.6
2023-06-19T05:45:19.745Z,61.6
2023-06-19T05:50:19.827Z,61.7
2023-06-19T05:55:19.847Z,61.7
2023-06-19T06:00:16.825Z,61.7
2023-06-19T06:05:16.806Z,61.7
2023-06-19T06:10:16.835Z,61.7
2023-06-19T06:15:19.747Z,61.7
2023-06-19T06:20:19.746Z,61.7
2023-06-19T06:25:19.762Z,61.7
2023-06-19T06:30:20.550Z,61.7
2023-06-19T06:35:16.814Z,61.8
2023-06-19T06:40:19.771Z,61.8
2023-06-19T06:45:19.791Z,61.8
2023-06-19T06:50:19.741Z,61.8
2023-06-19T06:55:16.583Z,61.8
2023-06-19T07:00:19.765Z,61.8
2023-06-19T07:05:19.804Z,61.8
2023-06-19T07:10:19.800Z,61.8
2023-06-19T07:15:16.930Z,61.8
2023-06-19T07:20:16.832Z,61.7
2023-06-19T07:25:19.784Z,61.6
2023-06-19T07:30:19.788Z,61.5
2023-06-19T07:35:19.847Z,61.4
2023-06-19T07:40:19.818Z,61.3
2023-06-19T07:45:16.841Z,61.2
2023-06-19T07:50:16.811Z,61.1
2023-06-19T07:55:19.796Z,60.9
2023-06-19T08:00:19.806Z,60.8
2023-06-19T08:05:19.847Z,60.7
2023-06-19T08:10:16.653Z,60.6
2023-06-19T08:15:19.790Z,60.6
2023-06-19T08:20:16.812Z,60.5
2023-06-19T08:25:16.952Z,60.5
2023-06-19T08:30:19.838Z,60.5
2023-06-19T08:35:19.959Z,60.4
2023-06-19T08:40:19.880Z,60.4
2023-06-19T08:45:19.832Z,60.3
2023-06-19T08:50:16.857Z,60.2
2023-06-19T08:55:19.827Z,60.1
2023-06-19T09:00:19.798Z,60.0
2023-06-19T09:05:19.868Z,59.9
2023-06-19T09:10:19.817Z,59.8
2023-06-19T09:15:16.866Z,59.7
2023-06-19T09:20:16.889Z,59.6
2023-06-19T09:25:19.829Z,59.6
2023-06-19T09:30:19.798Z,59.5
2023-06-19T09:35:16.870Z,59.4
2023-06-19T09:40:19.996Z,59.4
2023-06-19T09:45:16.948Z,59.4
2023-06-19T09:50:19.906Z,59.4
2023-06-19T09:55:19.857Z,59.4
2023-06-19T10:00:16.936Z,59.4
2023-06-19T10:05:19.903Z,59.4
2023-06-19T10:10:16.870Z,59.5
2023-06-19T10:15:16.935Z,59.6
2023-06-19T10:20:20.083Z,59.8
2023-06-19T10:25:16.874Z,59.9
2023-06-19T10:30:19.898Z,60.1
2023-06-19T10:35:19.906Z,60.3
2023-06-19T10:40:19.818Z,60.4
2023-06-19T10:45:19.833Z,60.4
2023-06-19T10:50:19.942Z,60.5
2023-06-19T10:55:19.905Z,60.5
2023-06-19T11:00:19.859Z,60.6
2023-06-19T11:05:19.888Z,60.6
2023-06-19T11:10:19.878Z,60.6
2023-06-19T11:15:19.869Z,60.8
2023-06-19T11:20:19.877Z,60.9
2023-06-19T11:25:19.876Z,61.0
2023-06-19T11:30:16.822Z,61.1
2023-06-19T11:35:16.930Z,61.2
2023-06-19T11:40:19.922Z,61.3
2023-06-19T11:45:19.920Z,61.4
2023-06-19T11:50:19.874Z,61.6
2023-06-19T11:55:19.892Z,61.8
2023-06-19T12:00:19.980Z,62.3
2023-06-19T12:05:16.794Z,62.5
2023-06-19T12:10:19.952Z,62.9
2023-06-19T12:15:19.950Z,63.3
2023-06-19T12:20:19.911Z,63.5
2023-06-19T12:25:16.972Z,63.5
2023-06-19T12:30:16.962Z,63.7
2023-06-19T12:35:19.963Z,64.1
2023-06-19T12:40:19.879Z,63.9
2023-06-19T12:45:19.879Z,63.9
2023-06-19T12:50:16.752Z,64.2
2023-06-19T12:55:19.958Z,64.3
2023-06-19T13:00:19.889Z,64.6
2023-06-19T13:05:16.936Z,64.4
2023-06-19T13:10:16.968Z,64.4
2023-06-19T13:15:19.954Z,64.9
2023-06-19T13:20:19.950Z,65.6
2023-06-19T13:25:16.986Z,65.3
2023-06-19T13:30:19.968Z,65.6
2023-06-19T13:35:20.036Z,65.7
2023-06-19T13:40:19.900Z,65.7
2023-06-19T13:45:16.943Z,65.1
2023-06-19T13:50:20.013Z,65.5
2023-06-19T13:55:19.991Z,65.6
2023-06-19T14:00:19.943Z,65.7
2023-06-19T14:05:16.964Z,65.4
2023-06-19T14:10:16.945Z,65.1
2023-06-19T14:15:19.942Z,65.3
2023-06-19T14:20:19.954Z,65.5
2023-06-19T14:25:19.912Z,65.2
2023-06-19T14:30:19.977Z,65.8
2023-06-19T14:35:16.956Z,65.7
2023-06-19T14:40:19.966Z,65.7
2023-06-19T14:45:16.998Z,65.8
2023-06-19T14:50:20.053Z,66.4
2023-06-19T14:55:16.982Z,66.8
2023-06-19T15:00:20.022Z,67.5
2023-06-19T15:05:19.991Z,67.2
2023-06-19T15:10:16.989Z,67.0
2023-06-19T15:15:19.996Z,67.2
2023-06-19T15:20:19.989Z,67.3
2023-06-19T15:25:16.953Z,67.0
2023-06-19T15:30:17.017Z,67.5
2023-06-19T15:35:20.214Z,67.6
2023-06-19T15:40:17.001Z,66.5
2023-06-19T15:45:20.045Z,66.0
2023-06-19T15:50:19.970Z,66.3
2023-06-19T15:55:19.984Z,66.1
2023-06-19T16:00:16.835Z,67.0
2023-06-19T16:05:20.020Z,66.0
2023-06-19T16:10:17.158Z,65.8
2023-06-19T16:15:20.034Z,66.2
2023-06-19T16:20:17.032Z,66.2
2023-06-19T16:25:17.023Z,67.0
2023-06-19T16:30:20.011Z,67.9
2023-06-19T16:35:20.077Z,67.1
2023-06-19T16:40:19.999Z,67.0
2023-06-19T16:45:16.845Z,67.5
2023-06-19T16:50:17.054Z,67.5
2023-06-19T16:55:20.033Z,67.8
2023-06-19T17:00:19.990Z,67.7
2023-06-19T17:05:20.042Z,67.8
2023-06-19T17:10:20.009Z,67.9
2023-06-19T17:15:20.064Z,67.6
2023-06-19T17:20:16.890Z,67.6
2023-06-19T17:25:17.079Z,66.8
2023-06-19T17:30:20.020Z,66.8
2023-06-19T17:35:21.505Z,66.3
2023-06-19T17:40:17.078Z,66.5
2023-06-19T17:45:20.070Z,66.1
2023-06-19T17:50:20.032Z,66.0
2023-06-19T17:55:20.065Z,65.8
2023-06-19T18:00:19.995Z,66.1
2023-06-19T18:05:20.090Z,66.3
2023-06-19T18:10:20.004Z,66.0
2023-06-19T18:15:17.100Z,65.3
2023-06-19T18:20:20.062Z,65.2
2023-06-19T18:25:20.098Z,65.0
2023-06-19T18:30:20.078Z,64.6
2023-06-19T18:35:20.130Z,65.1
2023-06-19T18:40:20.102Z,65.0
2023-06-19T18:45:17.096Z,65.4
2023-06-19T18:50:20.091Z,65.4
2023-06-19T18:55:20.028Z,65.8
2023-06-19T19:00:20.067Z,65.5
2023-06-19T19:05:20.032Z,66.3
2023-06-19T19:10:17.094Z,66.0
2023-06-19T19:15:20.093Z,66.1
2023-06-19T19:20:20.090Z,66.4
2023-06-19T19:25:17.157Z,65.7
2023-06-19T19:30:17.162Z,65.1
2023-06-19T19:35:20.146Z,65.3
2023-06-19T19:40:20.073Z,66.4
2023-06-19T19:45:20.088Z,66.2
2023-06-19T19:50:20.049Z,65.9
2023-06-19T19:55:17.088Z,66.4
2023-06-19T20:00:20.089Z,66.3
2023-06-19T20:05:20.090Z,66.2
2023-06-19T20:10:20.081Z,65.8
2023-06-19T20:15:20.083Z,66.3
2023-06-19T20:20:20.116Z,66.2
2023-06-19T20:25:17.120Z,66.0
2023-06-19T20:30:20.117Z,65.8
2023-06-19T20:35:20.120Z,66.1
2023-06-19T20:40:17.087Z,66.4
2023-06-19T20:45:17.108Z,66.7
2023-06-19T20:50:20.101Z,65.9
2023-06-19T20:55:17.125Z,65.9
2023-06-19T21:00:20.150Z,65.7
2023-06-19T21:05:20.115Z,65.5
2023-06-19T21:10:20.066Z,66.0
2023-06-19T21:15:16.988Z,66.1
2023-06-19T21:20:20.117Z,66.2
2023-06-19T21:25:17.095Z,66.2
2023-06-19T21:30:20.128Z,66.4
2023-06-19T21:35:20.123Z,66.1
2023-06-19T21:40:20.124Z,65.9
2023-06-19T21:45:20.154Z,66.3
2023-06-19T21:50:20.153Z,66.5
2023-06-19T21:55:20.117Z,66.5
2023-06-19T22:00:20.100Z,66.4
2023-06-19T22:05:17.259Z,66.2
2023-06-19T22:10:20.173Z,66.1
2023-06-19T22:15:20.196Z,66.0
2023-06-19T22:20:20.146Z,65.9
2023-06-19T22:25:20.158Z,65.8
2023-06-19T22:30:20.105Z,65.7
2023-06-19T22:35:17.223Z,65.7
2023-06-19T22:40:17.159Z,65.6
2023-06-19T22:45:17.126Z,65.3
2023-06-19T22:50:17.163Z,65.1
2023-06-19T22:55:20.275Z,65.0
2023-06-19T23:00:20.154Z,64.9
2023-06-19T23:05:20.170Z,64.7
2023-06-19T23:10:20.122Z,64.5
2023-06-19T23:15:20.228Z,64.3
2023-06-19T23:20:17.187Z,64.2
2023-06-19T23:25:20.146Z,64.2
2023-06-19T23:30:17.195Z,64.2
2023-06-19T23:35:20.241Z,64.2
2023-06-19T23:40:17.214Z,64.2
2023-06-19T23:45:20.189Z,64.1
2023-06-19T23:50:17.191Z,64.1
2023-06-19T23:55:20.230Z,64.0
